Ranchester, WY (82839)

8:00 PM MST on February 28, 2015 (GMT -0700)
KWYSHERI2 | Change Station
CLOSE
Current Station
Personal Weather Station
Location: Sheridan, WY
Elevation: 3828 ft
Nearby Weather Stations

Elev 3828 ft 44.81 °N, 106.98 °W | Updated 8 minutes ago

Mostly Cloudy
Mostly Cloudy
14.3 °F
Feels Like 14 °F
N
0.0
Wind Variable Wind from WSW
Gusts 0.0 mph

Today
High -- | Low -- °F
--% Chance of Precip.
Yesterday
High -- | Low -- °F
Precip. -- in
6:48 AM 5:54 PM
Waxing Gibbous, 82% visible
Pressure 30.33 in
Visibility 10.0 miles
Clouds Clear
Windchill 14 °F
Dew Point 6 °F
Humidity 68%
Rainfall 0.00 in
Snow Depth Not available.
UV 0 out of 12
Pollen .30 out of 12
Air Quality Not available.
Flu Activity Not available.
METAR KSHR 010253Z AUTO 00000KT 10SM CLR M11/M15 A3013 RMK AO2 SLP271 T11111150 51016

More Conditions Fewer Conditions

Pressure 30.33 in
Visibility 10.0 miles
Clouds Clear
Windchill 14 °F
Dew Point 6 °F
Humidity 68%
Rainfall 0.00 in
Snow Depth Not available.
UV 0 out of 12
Pollen .30 out of 12
Air Quality Not available.
Flu Activity Not available.
METAR KSHR 010253Z AUTO 00000KT 10SM CLR M11/M15 A3013 RMK AO2 SLP271 T11111150 51016

More Conditions Fewer Conditions

10-Day Weather Forecast

Almanac

Astronomy

Feb. 28, 2015 Rise Set
Actual Time
Civil Twilight
Nautical Twilight
Astronomical Twilight
Moon
Length of Visible Light
Length of Day
Tomorrow will be .
, % of the Moon is Illuminated

Today's Extremes

State Highs State Lows

Community

WunderPhotos

Upload Photos

1,801,278 photos uploaded!

WunderBlogs® & News

Nearby

Air Quality

  Air Quality AQ Index Pollutant
Not available.

Snow Depth

Station Depth Elevation

Earthquake Activity

City Distance Mag. Time & Date
Minimum magnitude displayed is 2.5.

Coastal Water Temperatures

Place Temperature

Nearby Weather Stations